sensor_id;sensor_type;location;lat;lon;timestamp;P1;durP1;ratioP1;P2;durP2;ratioP2
9436;SDS011;4757;59.334;18.034;2022-11-20T00:01:12;2.63;;;2.23;;
9436;SDS011;4757;59.334;18.034;2022-11-20T00:03:41;4.50;;;2.93;;
9436;SDS011;4757;59.334;18.034;2022-11-20T00:06:10;2.07;;;1.50;;
9436;SDS011;4757;59.334;18.034;2022-11-20T00:08:38;3.17;;;2.87;;
9436;SDS011;4757;59.334;18.034;2022-11-20T00:11:06;4.10;;;2.67;;
9436;SDS011;4757;59.334;18.034;2022-11-20T00:13:41;3.67;;;2.60;;
9436;SDS011;4757;59.334;18.034;2022-11-20T00:16:13;2.97;;;2.50;;
9436;SDS011;4757;59.334;18.034;2022-11-20T00:18:43;4.80;;;2.37;;
9436;SDS011;4757;59.334;18.034;2022-11-20T00:21:15;5.33;;;2.83;;
9436;SDS011;4757;59.334;18.034;2022-11-20T00:23:43;3.40;;;2.40;;
9436;SDS011;4757;59.334;18.034;2022-11-20T00:26:12;13.03;;;2.67;;
9436;SDS011;4757;59.334;18.034;2022-11-20T00:28:41;2.23;;;2.00;;
9436;SDS011;4757;59.334;18.034;2022-11-20T00:31:10;2.23;;;2.03;;
9436;SDS011;4757;59.334;18.034;2022-11-20T00:33:39;3.40;;;2.50;;
9436;SDS011;4757;59.334;18.034;2022-11-20T00:36:07;2.73;;;2.03;;
9436;SDS011;4757;59.334;18.034;2022-11-20T00:38:36;2.60;;;2.27;;
9436;SDS011;4757;59.334;18.034;2022-11-20T00:41:04;4.30;;;3.00;;
9436;SDS011;4757;59.334;18.034;2022-11-20T00:43:33;3.40;;;2.80;;
9436;SDS011;4757;59.334;18.034;2022-11-20T00:48:32;1.80;;;1.63;;
9436;SDS011;4757;59.334;18.034;2022-11-20T00:50:59;2.97;;;2.67;;
9436;SDS011;4757;59.334;18.034;2022-11-20T00:53:27;3.77;;;2.87;;
9436;SDS011;4757;59.334;18.034;2022-11-20T00:58:29;2.77;;;2.33;;
9436;SDS011;4757;59.334;18.034;2022-11-20T01:01:10;4.13;;;3.23;;
9436;SDS011;4757;59.334;18.034;2022-11-20T01:04:11;2.83;;;2.33;;
9436;SDS011;4757;59.334;18.034;2022-11-20T01:06:39;2.23;;;1.97;;
9436;SDS011;4757;59.334;18.034;2022-11-20T01:09:07;3.97;;;2.83;;
9436;SDS011;4757;59.334;18.034;2022-11-20T01:11:40;3.57;;;2.20;;
9436;SDS011;4757;59.334;18.034;2022-11-20T01:14:11;3.13;;;2.20;;
9436;SDS011;4757;59.334;18.034;2022-11-20T01:16:44;1.97;;;1.70;;
9436;SDS011;4757;59.334;18.034;2022-11-20T01:19:16;2.10;;;1.90;;
9436;SDS011;4757;59.334;18.034;2022-11-20T01:21:50;2.30;;;2.10;;
9436;SDS011;4757;59.334;18.034;2022-11-20T01:24:19;2.83;;;2.10;;
9436;SDS011;4757;59.334;18.034;2022-11-20T01:26:48;3.27;;;2.60;;
9436;SDS011;4757;59.334;18.034;2022-11-20T01:29:23;2.93;;;2.63;;
9436;SDS011;4757;59.334;18.034;2022-11-20T01:31:51;3.10;;;2.80;;
9436;SDS011;4757;59.334;18.034;2022-11-20T01:34:20;3.63;;;2.73;;
9436;SDS011;4757;59.334;18.034;2022-11-20T01:36:48;2.60;;;2.40;;
9436;SDS011;4757;59.334;18.034;2022-11-20T01:39:20;2.50;;;1.93;;
9436;SDS011;4757;59.334;18.034;2022-11-20T01:41:50;2.40;;;1.90;;
9436;SDS011;4757;59.334;18.034;2022-11-20T01:45:42;2.47;;;2.13;;
9436;SDS011;4757;59.334;18.034;2022-11-20T01:47:50;4.23;;;2.50;;
9436;SDS011;4757;59.334;18.034;2022-11-20T01:50:19;3.20;;;2.90;;
9436;SDS011;4757;59.334;18.034;2022-11-20T01:52:57;3.20;;;2.40;;
9436;SDS011;4757;59.334;18.034;2022-11-20T01:55:34;4.17;;;3.00;;
9436;SDS011;4757;59.334;18.034;2022-11-20T01:58:06;3.03;;;2.47;;
9436;SDS011;4757;59.334;18.034;2022-11-20T02:00:33;11.90;;;2.50;;
9436;SDS011;4757;59.334;18.034;2022-11-20T02:03:06;3.50;;;2.63;;
9436;SDS011;4757;59.334;18.034;2022-11-20T02:08:28;2.60;;;2.40;;
9436;SDS011;4757;59.334;18.034;2022-11-20T02:10:56;4.07;;;3.23;;
9436;SDS011;4757;59.334;18.034;2022-11-20T02:13:23;3.47;;;2.60;;
9436;SDS011;4757;59.334;18.034;2022-11-20T02:16:10;1.60;;;1.50;;
9436;SDS011;4757;59.334;18.034;2022-11-20T02:18:55;2.50;;;2.17;;
9436;SDS011;4757;59.334;18.034;2022-11-20T02:21:39;2.33;;;2.13;;
9436;SDS011;4757;59.334;18.034;2022-11-20T02:24:15;5.10;;;2.23;;
9436;SDS011;4757;59.334;18.034;2022-11-20T02:31:58;2.10;;;1.87;;
9436;SDS011;4757;59.334;18.034;2022-11-20T02:34:27;2.77;;;2.53;;
9436;SDS011;4757;59.334;18.034;2022-11-20T02:36:55;2.00;;;1.60;;
9436;SDS011;4757;59.334;18.034;2022-11-20T02:39:23;3.43;;;3.13;;
9436;SDS011;4757;59.334;18.034;2022-11-20T02:41:53;2.87;;;2.40;;
9436;SDS011;4757;59.334;18.034;2022-11-20T02:44:22;2.30;;;2.10;;
9436;SDS011;4757;59.334;18.034;2022-11-20T02:46:49;2.43;;;2.20;;
9436;SDS011;4757;59.334;18.034;2022-11-20T02:49:15;2.03;;;1.87;;
9436;SDS011;4757;59.334;18.034;2022-11-20T02:51:43;4.40;;;2.37;;
9436;SDS011;4757;59.334;18.034;2022-11-20T02:54:10;2.50;;;2.23;;
9436;SDS011;4757;59.334;18.034;2022-11-20T02:56:38;4.03;;;2.63;;
9436;SDS011;4757;59.334;18.034;2022-11-20T02:59:05;2.37;;;2.17;;
9436;SDS011;4757;59.334;18.034;2022-11-20T03:01:33;2.53;;;1.97;;
9436;SDS011;4757;59.334;18.034;2022-11-20T03:04:00;2.13;;;1.93;;
9436;SDS011;4757;59.334;18.034;2022-11-20T03:06:27;2.03;;;1.83;;
9436;SDS011;4757;59.334;18.034;2022-11-20T03:08:54;1.60;;;1.47;;
9436;SDS011;4757;59.334;18.034;2022-11-20T03:11:21;3.27;;;1.40;;
9436;SDS011;4757;59.334;18.034;2022-11-20T03:13:48;3.90;;;1.53;;
9436;SDS011;4757;59.334;18.034;2022-11-20T03:16:16;1.70;;;1.60;;
9436;SDS011;4757;59.334;18.034;2022-11-20T03:18:45;2.07;;;1.87;;
9436;SDS011;4757;59.334;18.034;2022-11-20T03:21:13;2.33;;;2.10;;
9436;SDS011;4757;59.334;18.034;2022-11-20T03:23:40;1.87;;;1.77;;
9436;SDS011;4757;59.334;18.034;2022-11-20T03:26:17;2.13;;;1.93;;
9436;SDS011;4757;59.334;18.034;2022-11-20T03:28:49;1.83;;;1.70;;
9436;SDS011;4757;59.334;18.034;2022-11-20T03:31:18;2.50;;;2.30;;
9436;SDS011;4757;59.334;18.034;2022-11-20T03:33:47;2.80;;;2.10;;
9436;SDS011;4757;59.334;18.034;2022-11-20T03:36:15;2.90;;;2.07;;
9436;SDS011;4757;59.334;18.034;2022-11-20T03:38:44;3.10;;;2.60;;
9436;SDS011;4757;59.334;18.034;2022-11-20T03:41:12;3.73;;;2.57;;
9436;SDS011;4757;59.334;18.034;2022-11-20T03:43:54;1.30;;;1.20;;
9436;SDS011;4757;59.334;18.034;2022-11-20T03:46:23;2.17;;;1.77;;
9436;SDS011;4757;59.334;18.034;2022-11-20T03:48:50;1.70;;;1.57;;
9436;SDS011;4757;59.334;18.034;2022-11-20T03:53:46;1.70;;;1.60;;
9436;SDS011;4757;59.334;18.034;2022-11-20T03:56:15;1.90;;;1.53;;
9436;SDS011;4757;59.334;18.034;2022-11-20T03:58:43;3.40;;;1.33;;
9436;SDS011;4757;59.334;18.034;2022-11-20T04:01:11;2.07;;;1.93;;
9436;SDS011;4757;59.334;18.034;2022-11-20T04:03:40;1.50;;;1.30;;
9436;SDS011;4757;59.334;18.034;2022-11-20T04:06:18;1.80;;;1.50;;
9436;SDS011;4757;59.334;18.034;2022-11-20T04:08:49;2.80;;;1.50;;
9436;SDS011;4757;59.334;18.034;2022-11-20T04:11:22;2.67;;;1.87;;
9436;SDS011;4757;59.334;18.034;2022-11-20T04:13:52;2.67;;;2.30;;
9436;SDS011;4757;59.334;18.034;2022-11-20T04:16:31;1.70;;;1.60;;
9436;SDS011;4757;59.334;18.034;2022-11-20T04:19:00;1.67;;;1.20;;
9436;SDS011;4757;59.334;18.034;2022-11-20T04:21:28;1.30;;;1.20;;
9436;SDS011;4757;59.334;18.034;2022-11-20T04:23:56;1.60;;;1.50;;
9436;SDS011;4757;59.334;18.034;2022-11-20T04:26:24;1.67;;;1.40;;
9436;SDS011;4757;59.334;18.034;2022-11-20T04:28:52;7.03;;;1.90;;
9436;SDS011;4757;59.334;18.034;2022-11-20T04:31:21;1.77;;;1.20;;
9436;SDS011;4757;59.334;18.034;2022-11-20T04:33:49;1.70;;;1.40;;
9436;SDS011;4757;59.334;18.034;2022-11-20T04:38:51;1.60;;;1.50;;
9436;SDS011;4757;59.334;18.034;2022-11-20T04:41:23;1.60;;;1.40;;
9436;SDS011;4757;59.334;18.034;2022-11-20T04:43:55;3.60;;;1.90;;
9436;SDS011;4757;59.334;18.034;2022-11-20T04:46:26;1.53;;;1.40;;
9436;SDS011;4757;59.334;18.034;2022-11-20T04:48:53;1.57;;;1.47;;
9436;SDS011;4757;59.334;18.034;2022-11-20T04:51:21;2.43;;;1.60;;
9436;SDS011;4757;59.334;18.034;2022-11-20T04:53:48;0.50;;;0.50;;
9436;SDS011;4757;59.334;18.034;2022-11-20T04:56:15;1.67;;;1.27;;
9436;SDS011;4757;59.334;18.034;2022-11-20T04:58:42;1.57;;;1.40;;
9436;SDS011;4757;59.334;18.034;2022-11-20T05:03:39;1.90;;;1.60;;
9436;SDS011;4757;59.334;18.034;2022-11-20T05:06:08;1.80;;;1.70;;
9436;SDS011;4757;59.334;18.034;2022-11-20T05:08:36;1.50;;;1.40;;
9436;SDS011;4757;59.334;18.034;2022-11-20T05:11:04;1.60;;;1.50;;
9436;SDS011;4757;59.334;18.034;2022-11-20T05:13:45;2.37;;;1.80;;
9436;SDS011;4757;59.334;18.034;2022-11-20T05:16:14;1.70;;;1.03;;
9436;SDS011;4757;59.334;18.034;2022-11-20T05:18:43;2.40;;;1.60;;
9436;SDS011;4757;59.334;18.034;2022-11-20T05:21:10;2.23;;;1.70;;
9436;SDS011;4757;59.334;18.034;2022-11-20T05:23:38;2.13;;;1.37;;
9436;SDS011;4757;59.334;18.034;2022-11-20T05:26:06;1.27;;;1.20;;
9436;SDS011;4757;59.334;18.034;2022-11-20T05:28:35;3.40;;;1.73;;
9436;SDS011;4757;59.334;18.034;2022-11-20T05:33:32;1.90;;;1.80;;
9436;SDS011;4757;59.334;18.034;2022-11-20T05:36:01;5.40;;;2.80;;
9436;SDS011;4757;59.334;18.034;2022-11-20T05:38:28;1.83;;;1.67;;
9436;SDS011;4757;59.334;18.034;2022-11-20T05:41:02;0.93;;;0.80;;
9436;SDS011;4757;59.334;18.034;2022-11-20T05:43:33;2.00;;;1.90;;
9436;SDS011;4757;59.334;18.034;2022-11-20T05:46:01;1.07;;;0.97;;
9436;SDS011;4757;59.334;18.034;2022-11-20T05:48:29;1.20;;;1.10;;
9436;SDS011;4757;59.334;18.034;2022-11-20T05:51:01;5.00;;;1.27;;
9436;SDS011;4757;59.334;18.034;2022-11-20T05:53:29;1.73;;;1.27;;
9436;SDS011;4757;59.334;18.034;2022-11-20T05:55:58;1.10;;;1.00;;
9436;SDS011;4757;59.334;18.034;2022-11-20T05:58:33;2.97;;;1.80;;
9436;SDS011;4757;59.334;18.034;2022-11-20T06:01:19;1.73;;;1.50;;
9436;SDS011;4757;59.334;18.034;2022-11-20T06:03:48;1.87;;;1.63;;
9436;SDS011;4757;59.334;18.034;2022-11-20T06:06:17;1.63;;;1.53;;
9436;SDS011;4757;59.334;18.034;2022-11-20T06:08:44;1.70;;;1.00;;
9436;SDS011;4757;59.334;18.034;2022-11-20T06:11:12;1.30;;;1.20;;
9436;SDS011;4757;59.334;18.034;2022-11-20T06:13:40;1.37;;;1.27;;
9436;SDS011;4757;59.334;18.034;2022-11-20T06:16:08;1.33;;;1.23;;
9436;SDS011;4757;59.334;18.034;2022-11-20T06:18:36;1.37;;;1.27;;
9436;SDS011;4757;59.334;18.034;2022-11-20T06:21:05;1.70;;;1.60;;
9436;SDS011;4757;59.334;18.034;2022-11-20T06:23:37;2.97;;;2.00;;
9436;SDS011;4757;59.334;18.034;2022-11-20T06:26:06;1.63;;;1.33;;
9436;SDS011;4757;59.334;18.034;2022-11-20T06:28:34;3.03;;;1.70;;
9436;SDS011;4757;59.334;18.034;2022-11-20T06:31:01;1.97;;;1.87;;
9436;SDS011;4757;59.334;18.034;2022-11-20T06:33:29;1.50;;;1.40;;
9436;SDS011;4757;59.334;18.034;2022-11-20T06:35:57;1.80;;;1.50;;
9436;SDS011;4757;59.334;18.034;2022-11-20T06:38:29;1.50;;;1.40;;
9436;SDS011;4757;59.334;18.034;2022-11-20T06:40:59;1.53;;;1.33;;
9436;SDS011;4757;59.334;18.034;2022-11-20T06:43:28;4.17;;;1.83;;
9436;SDS011;4757;59.334;18.034;2022-11-20T06:45:56;1.60;;;1.50;;
9436;SDS011;4757;59.334;18.034;2022-11-20T06:48:25;1.60;;;1.40;;
9436;SDS011;4757;59.334;18.034;2022-11-20T06:50:52;9.23;;;1.30;;
9436;SDS011;4757;59.334;18.034;2022-11-20T06:53:19;2.30;;;1.73;;
9436;SDS011;4757;59.334;18.034;2022-11-20T06:55:49;1.40;;;1.30;;
9436;SDS011;4757;59.334;18.034;2022-11-20T06:58:17;1.90;;;1.50;;
9436;SDS011;4757;59.334;18.034;2022-11-20T07:00:44;3.07;;;1.87;;
9436;SDS011;4757;59.334;18.034;2022-11-20T07:03:11;2.83;;;1.27;;
9436;SDS011;4757;59.334;18.034;2022-11-20T07:05:39;1.00;;;1.00;;
9436;SDS011;4757;59.334;18.034;2022-11-20T07:08:06;1.50;;;1.40;;
9436;SDS011;4757;59.334;18.034;2022-11-20T07:10:34;1.20;;;1.10;;
9436;SDS011;4757;59.334;18.034;2022-11-20T07:13:01;1.10;;;1.10;;
9436;SDS011;4757;59.334;18.034;2022-11-20T07:15:29;1.20;;;1.10;;
9436;SDS011;4757;59.334;18.034;2022-11-20T07:17:59;0.50;;;0.50;;
9436;SDS011;4757;59.334;18.034;2022-11-20T07:20:26;1.80;;;1.63;;
9436;SDS011;4757;59.334;18.034;2022-11-20T07:22:54;0.60;;;0.60;;
9436;SDS011;4757;59.334;18.034;2022-11-20T07:25:22;3.87;;;1.30;;
9436;SDS011;4757;59.334;18.034;2022-11-20T07:27:57;0.80;;;0.80;;
9436;SDS011;4757;59.334;18.034;2022-11-20T07:30:26;1.40;;;1.30;;
9436;SDS011;4757;59.334;18.034;2022-11-20T07:32:55;2.00;;;1.80;;
9436;SDS011;4757;59.334;18.034;2022-11-20T07:35:23;2.33;;;1.63;;
9436;SDS011;4757;59.334;18.034;2022-11-20T07:37:51;1.30;;;1.20;;
9436;SDS011;4757;59.334;18.034;2022-11-20T07:40:18;1.63;;;1.53;;
9436;SDS011;4757;59.334;18.034;2022-11-20T07:42:49;3.17;;;1.83;;
9436;SDS011;4757;59.334;18.034;2022-11-20T07:45:18;1.80;;;1.47;;
9436;SDS011;4757;59.334;18.034;2022-11-20T07:47:46;0.80;;;0.80;;
9436;SDS011;4757;59.334;18.034;2022-11-20T07:50:14;2.00;;;1.53;;
9436;SDS011;4757;59.334;18.034;2022-11-20T07:52:41;2.23;;;1.50;;
9436;SDS011;4757;59.334;18.034;2022-11-20T07:55:09;3.27;;;1.77;;
9436;SDS011;4757;59.334;18.034;2022-11-20T07:57:36;1.70;;;1.40;;
9436;SDS011;4757;59.334;18.034;2022-11-20T08:00:04;1.73;;;1.23;;
9436;SDS011;4757;59.334;18.034;2022-11-20T08:02:38;1.17;;;0.93;;
9436;SDS011;4757;59.334;18.034;2022-11-20T08:05:08;1.27;;;1.17;;
9436;SDS011;4757;59.334;18.034;2022-11-20T08:07:36;0.83;;;0.80;;
9436;SDS011;4757;59.334;18.034;2022-11-20T08:10:09;1.07;;;1.00;;
9436;SDS011;4757;59.334;18.034;2022-11-20T08:12:50;0.90;;;0.90;;
9436;SDS011;4757;59.334;18.034;2022-11-20T08:15:37;1.17;;;1.17;;
9436;SDS011;4757;59.334;18.034;2022-11-20T08:18:06;1.53;;;1.10;;
9436;SDS011;4757;59.334;18.034;2022-11-20T08:20:54;1.27;;;1.20;;
9436;SDS011;4757;59.334;18.034;2022-11-20T08:23:22;1.27;;;1.17;;
9436;SDS011;4757;59.334;18.034;2022-11-20T08:25:49;1.53;;;1.43;;
9436;SDS011;4757;59.334;18.034;2022-11-20T08:28:17;2.00;;;1.43;;
9436;SDS011;4757;59.334;18.034;2022-11-20T08:30:48;1.47;;;0.90;;
9436;SDS011;4757;59.334;18.034;2022-11-20T08:33:16;1.73;;;1.20;;
